sensor_id;sensor_type;location;lat;lon;timestamp;temperature;humidity
39019;DHT22;24786;51.984;5.872;2022-07-23T00:01:20;15.90;99.90
39019;DHT22;24786;51.984;5.872;2022-07-23T00:03:46;15.80;99.90
39019;DHT22;24786;51.984;5.872;2022-07-23T00:06:12;15.80;99.90
39019;DHT22;24786;51.984;5.872;2022-07-23T00:08:37;15.80;99.90
39019;DHT22;24786;51.984;5.872;2022-07-23T00:11:03;15.70;99.90
39019;DHT22;24786;51.984;5.872;2022-07-23T00:13:29;15.70;99.90
39019;DHT22;24786;51.984;5.872;2022-07-23T00:15:55;15.70;99.90
39019;DHT22;24786;51.984;5.872;2022-07-23T00:18:21;15.70;99.90
39019;DHT22;24786;51.984;5.872;2022-07-23T00:20:47;15.70;99.90
39019;DHT22;24786;51.984;5.872;2022-07-23T00:23:12;15.60;99.90
39019;DHT22;24786;51.984;5.872;2022-07-23T00:25:38;15.60;99.90
39019;DHT22;24786;51.984;5.872;2022-07-23T00:28:04;15.60;99.90
39019;DHT22;24786;51.984;5.872;2022-07-23T00:30:30;15.50;99.90
39019;DHT22;24786;51.984;5.872;2022-07-23T00:32:58;15.50;99.90
39019;DHT22;24786;51.984;5.872;2022-07-23T00:35:25;15.40;99.90
39019;DHT22;24786;51.984;5.872;2022-07-23T00:37:53;15.50;99.90
39019;DHT22;24786;51.984;5.872;2022-07-23T00:40:19;15.40;99.90
39019;DHT22;24786;51.984;5.872;2022-07-23T00:42:44;15.40;99.90
39019;DHT22;24786;51.984;5.872;2022-07-23T00:45:10;15.40;99.90
39019;DHT22;24786;51.984;5.872;2022-07-23T00:47:36;15.40;99.90
39019;DHT22;24786;51.984;5.872;2022-07-23T00:50:07;15.40;99.90
39019;DHT22;24786;51.984;5.872;2022-07-23T00:52:34;15.40;99.90
39019;DHT22;24786;51.984;5.872;2022-07-23T00:55:00;15.30;99.90
39019;DHT22;24786;51.984;5.872;2022-07-23T00:57:26;15.30;99.90
39019;DHT22;24786;51.984;5.872;2022-07-23T00:59:52;15.20;99.90
39019;DHT22;24786;51.984;5.872;2022-07-23T01:02:17;15.30;99.90
39019;DHT22;24786;51.984;5.872;2022-07-23T01:04:43;15.30;99.90
39019;DHT22;24786;51.984;5.872;2022-07-23T01:07:09;15.40;99.90
39019;DHT22;24786;51.984;5.872;2022-07-23T01:09:35;15.20;99.90
39019;DHT22;24786;51.984;5.872;2022-07-23T01:12:01;15.20;99.90
39019;DHT22;24786;51.984;5.872;2022-07-23T01:14:27;15.10;99.90
39019;DHT22;24786;51.984;5.872;2022-07-23T01:16:53;15.10;99.90
39019;DHT22;24786;51.984;5.872;2022-07-23T01:19:19;15.10;99.90
39019;DHT22;24786;51.984;5.872;2022-07-23T01:21:48;15.10;99.90
39019;DHT22;24786;51.984;5.872;2022-07-23T01:24:14;15.10;99.90
39019;DHT22;24786;51.984;5.872;2022-07-23T01:26:44;15.00;99.90
39019;DHT22;24786;51.984;5.872;2022-07-23T01:29:10;15.00;99.90
39019;DHT22;24786;51.984;5.872;2022-07-23T01:31:36;15.00;99.90
39019;DHT22;24786;51.984;5.872;2022-07-23T01:34:02;15.00;99.90
39019;DHT22;24786;51.984;5.872;2022-07-23T01:36:28;15.00;99.90
39019;DHT22;24786;51.984;5.872;2022-07-23T01:38:54;15.00;99.90
39019;DHT22;24786;51.984;5.872;2022-07-23T01:41:19;15.00;99.90
39019;DHT22;24786;51.984;5.872;2022-07-23T01:43:45;15.00;99.90
39019;DHT22;24786;51.984;5.872;2022-07-23T01:46:11;14.90;99.90
39019;DHT22;24786;51.984;5.872;2022-07-23T01:48:37;14.90;99.90
39019;DHT22;24786;51.984;5.872;2022-07-23T01:51:03;15.00;99.90
39019;DHT22;24786;51.984;5.872;2022-07-23T01:53:28;14.90;99.90
39019;DHT22;24786;51.984;5.872;2022-07-23T01:55:57;14.90;99.90
39019;DHT22;24786;51.984;5.872;2022-07-23T01:58:22;14.90;99.90
39019;DHT22;24786;51.984;5.872;2022-07-23T02:00:48;14.90;99.90
39019;DHT22;24786;51.984;5.872;2022-07-23T02:03:13;14.90;99.90
39019;DHT22;24786;51.984;5.872;2022-07-23T02:05:39;14.90;99.90
39019;DHT22;24786;51.984;5.872;2022-07-23T02:08:05;14.90;99.90
39019;DHT22;24786;51.984;5.872;2022-07-23T02:10:30;14.90;99.90
39019;DHT22;24786;51.984;5.872;2022-07-23T02:12:56;14.90;99.90
39019;DHT22;24786;51.984;5.872;2022-07-23T02:15:21;14.80;99.90
39019;DHT22;24786;51.984;5.872;2022-07-23T02:17:47;14.80;99.90
39019;DHT22;24786;51.984;5.872;2022-07-23T02:20:12;14.80;99.90
39019;DHT22;24786;51.984;5.872;2022-07-23T02:22:38;14.80;99.90
39019;DHT22;24786;51.984;5.872;2022-07-23T02:25:08;14.80;99.90
39019;DHT22;24786;51.984;5.872;2022-07-23T02:27:34;14.70;99.90
39019;DHT22;24786;51.984;5.872;2022-07-23T02:30:00;14.70;99.90
39019;DHT22;24786;51.984;5.872;2022-07-23T02:32:26;14.70;99.90
39019;DHT22;24786;51.984;5.872;2022-07-23T02:34:52;14.70;99.90
39019;DHT22;24786;51.984;5.872;2022-07-23T02:37:18;14.70;99.90
39019;DHT22;24786;51.984;5.872;2022-07-23T02:39:43;14.60;99.90
39019;DHT22;24786;51.984;5.872;2022-07-23T02:42:09;14.60;99.90
39019;DHT22;24786;51.984;5.872;2022-07-23T02:44:35;14.60;99.90
39019;DHT22;24786;51.984;5.872;2022-07-23T02:47:00;14.60;99.90
39019;DHT22;24786;51.984;5.872;2022-07-23T02:49:26;14.60;99.90
39019;DHT22;24786;51.984;5.872;2022-07-23T02:51:52;14.60;99.90
39019;DHT22;24786;51.984;5.872;2022-07-23T02:54:17;14.60;99.90
39019;DHT22;24786;51.984;5.872;2022-07-23T02:56:43;14.50;99.90
39019;DHT22;24786;51.984;5.872;2022-07-23T02:59:08;14.50;99.90
39019;DHT22;24786;51.984;5.872;2022-07-23T03:01:34;14.50;99.90
39019;DHT22;24786;51.984;5.872;2022-07-23T03:04:00;14.50;99.90
39019;DHT22;24786;51.984;5.872;2022-07-23T03:06:25;14.40;99.90
39019;DHT22;24786;51.984;5.872;2022-07-23T03:08:51;14.40;99.90
39019;DHT22;24786;51.984;5.872;2022-07-23T03:11:17;14.40;99.90
39019;DHT22;24786;51.984;5.872;2022-07-23T03:13:42;14.30;99.90
39019;DHT22;24786;51.984;5.872;2022-07-23T03:16:08;14.30;99.90
39019;DHT22;24786;51.984;5.872;2022-07-23T03:18:33;14.40;99.90
39019;DHT22;24786;51.984;5.872;2022-07-23T03:20:59;14.20;99.90
39019;DHT22;24786;51.984;5.872;2022-07-23T03:23:25;14.20;99.90
39019;DHT22;24786;51.984;5.872;2022-07-23T03:25:51;14.20;99.90
39019;DHT22;24786;51.984;5.872;2022-07-23T03:28:17;14.20;99.90
39019;DHT22;24786;51.984;5.872;2022-07-23T03:30:45;14.10;99.90
39019;DHT22;24786;51.984;5.872;2022-07-23T03:33:15;14.10;99.90
39019;DHT22;24786;51.984;5.872;2022-07-23T03:35:42;14.10;99.90
39019;DHT22;24786;51.984;5.872;2022-07-23T03:38:08;14.10;99.90
39019;DHT22;24786;51.984;5.872;2022-07-23T03:40:33;14.10;99.90
39019;DHT22;24786;51.984;5.872;2022-07-23T03:42:59;14.10;99.90
39019;DHT22;24786;51.984;5.872;2022-07-23T03:45:24;14.10;99.90
39019;DHT22;24786;51.984;5.872;2022-07-23T03:47:50;14.10;99.90
39019;DHT22;24786;51.984;5.872;2022-07-23T03:50:15;14.00;99.90
39019;DHT22;24786;51.984;5.872;2022-07-23T03:52:41;14.00;99.90
39019;DHT22;24786;51.984;5.872;2022-07-23T03:55:07;14.00;99.90
39019;DHT22;24786;51.984;5.872;2022-07-23T03:57:33;14.00;99.90
39019;DHT22;24786;51.984;5.872;2022-07-23T03:59:58;14.00;99.90
39019;DHT22;24786;51.984;5.872;2022-07-23T04:02:24;14.00;99.90
39019;DHT22;24786;51.984;5.872;2022-07-23T04:04:50;14.00;99.90
39019;DHT22;24786;51.984;5.872;2022-07-23T04:07:16;14.00;99.90
39019;DHT22;24786;51.984;5.872;2022-07-23T04:09:43;14.00;99.90
39019;DHT22;24786;51.984;5.872;2022-07-23T04:12:09;14.00;99.90
39019;DHT22;24786;51.984;5.872;2022-07-23T04:14:35;14.00;99.90
39019;DHT22;24786;51.984;5.872;2022-07-23T04:17:01;14.00;99.90
39019;DHT22;24786;51.984;5.872;2022-07-23T04:19:27;14.10;99.90
39019;DHT22;24786;51.984;5.872;2022-07-23T04:21:53;14.10;99.90
39019;DHT22;24786;51.984;5.872;2022-07-23T04:24:19;14.10;99.90
39019;DHT22;24786;51.984;5.872;2022-07-23T04:26:45;14.20;99.90
39019;DHT22;24786;51.984;5.872;2022-07-23T04:29:10;14.30;99.90
39019;DHT22;24786;51.984;5.872;2022-07-23T04:31:36;14.30;99.90
39019;DHT22;24786;51.984;5.872;2022-07-23T04:34:01;14.30;99.90
39019;DHT22;24786;51.984;5.872;2022-07-23T04:36:27;14.30;99.90
39019;DHT22;24786;51.984;5.872;2022-07-23T04:38:53;14.30;99.90
39019;DHT22;24786;51.984;5.872;2022-07-23T04:41:19;14.30;99.90
39019;DHT22;24786;51.984;5.872;2022-07-23T04:43:45;14.40;99.90
39019;DHT22;24786;51.984;5.872;2022-07-23T04:46:10;14.40;99.90
39019;DHT22;24786;51.984;5.872;2022-07-23T04:48:36;14.40;99.90
39019;DHT22;24786;51.984;5.872;2022-07-23T04:51:02;14.40;99.90
39019;DHT22;24786;51.984;5.872;2022-07-23T04:53:28;14.40;99.90
39019;DHT22;24786;51.984;5.872;2022-07-23T04:55:54;14.40;99.90
39019;DHT22;24786;51.984;5.872;2022-07-23T04:58:20;14.40;99.90
39019;DHT22;24786;51.984;5.872;2022-07-23T05:00:46;14.40;99.90
39019;DHT22;24786;51.984;5.872;2022-07-23T05:03:12;14.40;99.90
39019;DHT22;24786;51.984;5.872;2022-07-23T05:05:37;14.30;99.90
39019;DHT22;24786;51.984;5.872;2022-07-23T05:08:03;14.40;99.90
39019;DHT22;24786;51.984;5.872;2022-07-23T05:10:29;14.50;99.90
39019;DHT22;24786;51.984;5.872;2022-07-23T05:12:54;14.50;99.90
39019;DHT22;24786;51.984;5.872;2022-07-23T05:15:20;14.50;99.90
39019;DHT22;24786;51.984;5.872;2022-07-23T05:17:46;14.60;99.90
39019;DHT22;24786;51.984;5.872;2022-07-23T05:20:12;14.70;99.90
39019;DHT22;24786;51.984;5.872;2022-07-23T05:22:38;14.70;99.90
39019;DHT22;24786;51.984;5.872;2022-07-23T05:25:05;14.80;99.90
39019;DHT22;24786;51.984;5.872;2022-07-23T05:27:30;14.90;99.90
39019;DHT22;24786;51.984;5.872;2022-07-23T05:29:56;15.00;99.90
39019;DHT22;24786;51.984;5.872;2022-07-23T05:32:22;15.20;99.90
39019;DHT22;24786;51.984;5.872;2022-07-23T05:34:47;15.30;99.90
39019;DHT22;24786;51.984;5.872;2022-07-23T05:37:13;15.50;99.90
39019;DHT22;24786;51.984;5.872;2022-07-23T05:39:38;15.60;99.90
39019;DHT22;24786;51.984;5.872;2022-07-23T05:42:04;15.80;99.90
39019;DHT22;24786;51.984;5.872;2022-07-23T05:44:29;15.90;99.90
39019;DHT22;24786;51.984;5.872;2022-07-23T05:46:55;16.10;99.90
39019;DHT22;24786;51.984;5.872;2022-07-23T05:49:21;16.20;99.90
39019;DHT22;24786;51.984;5.872;2022-07-23T05:51:46;16.30;99.90
39019;DHT22;24786;51.984;5.872;2022-07-23T05:54:12;16.40;99.90
39019;DHT22;24786;51.984;5.872;2022-07-23T05:56:37;16.50;99.90
39019;DHT22;24786;51.984;5.872;2022-07-23T05:59:03;16.60;99.90
39019;DHT22;24786;51.984;5.872;2022-07-23T06:01:29;16.70;99.90
39019;DHT22;24786;51.984;5.872;2022-07-23T06:03:54;16.80;99.90
39019;DHT22;24786;51.984;5.872;2022-07-23T06:06:20;16.90;99.90
39019;DHT22;24786;51.984;5.872;2022-07-23T06:08:45;17.10;99.90
39019;DHT22;24786;51.984;5.872;2022-07-23T06:11:11;17.30;99.90
39019;DHT22;24786;51.984;5.872;2022-07-23T06:13:36;17.40;99.90
39019;DHT22;24786;51.984;5.872;2022-07-23T06:16:02;17.40;99.90
39019;DHT22;24786;51.984;5.872;2022-07-23T06:18:28;17.60;99.90
39019;DHT22;24786;51.984;5.872;2022-07-23T06:20:53;17.70;99.90
39019;DHT22;24786;51.984;5.872;2022-07-23T06:23:19;17.80;99.90
39019;DHT22;24786;51.984;5.872;2022-07-23T06:25:45;17.90;99.90
39019;DHT22;24786;51.984;5.872;2022-07-23T06:28:11;17.90;99.90
39019;DHT22;24786;51.984;5.872;2022-07-23T06:30:36;18.00;99.90
39019;DHT22;24786;51.984;5.872;2022-07-23T06:33:02;18.10;99.90
39019;DHT22;24786;51.984;5.872;2022-07-23T06:35:27;18.20;99.90
39019;DHT22;24786;51.984;5.872;2022-07-23T06:37:53;18.30;99.90
39019;DHT22;24786;51.984;5.872;2022-07-23T06:40:18;18.40;99.90
39019;DHT22;24786;51.984;5.872;2022-07-23T06:42:51;18.40;99.90
39019;DHT22;24786;51.984;5.872;2022-07-23T06:45:19;18.50;99.90
39019;DHT22;24786;51.984;5.872;2022-07-23T06:47:47;18.50;99.90
39019;DHT22;24786;51.984;5.872;2022-07-23T06:50:13;18.70;99.90
39019;DHT22;24786;51.984;5.872;2022-07-23T06:52:42;18.70;99.90
39019;DHT22;24786;51.984;5.872;2022-07-23T06:55:07;18.80;99.90
39019;DHT22;24786;51.984;5.872;2022-07-23T06:57:33;18.90;99.90
39019;DHT22;24786;51.984;5.872;2022-07-23T06:59:58;18.90;99.90
39019;DHT22;24786;51.984;5.872;2022-07-23T07:02:24;18.90;99.90
39019;DHT22;24786;51.984;5.872;2022-07-23T07:04:50;18.90;99.90
39019;DHT22;24786;51.984;5.872;2022-07-23T07:07:15;19.00;99.90
39019;DHT22;24786;51.984;5.872;2022-07-23T07:09:41;18.90;99.90
39019;DHT22;24786;51.984;5.872;2022-07-23T07:12:09;19.00;99.90
39019;DHT22;24786;51.984;5.872;2022-07-23T07:14:35;19.00;99.90
39019;DHT22;24786;51.984;5.872;2022-07-23T07:17:00;19.10;99.90
39019;DHT22;24786;51.984;5.872;2022-07-23T07:19:29;19.10;99.90
39019;DHT22;24786;51.984;5.872;2022-07-23T07:21:58;19.20;99.90
39019;DHT22;24786;51.984;5.872;2022-07-23T07:24:26;19.20;99.90
39019;DHT22;24786;51.984;5.872;2022-07-23T07:26:51;19.20;99.90
39019;DHT22;24786;51.984;5.872;2022-07-23T07:29:17;19.20;99.90
39019;DHT22;24786;51.984;5.872;2022-07-23T07:31:42;19.20;99.90
39019;DHT22;24786;51.984;5.872;2022-07-23T07:34:08;19.30;99.90
39019;DHT22;24786;51.984;5.872;2022-07-23T07:36:34;19.30;99.90
39019;DHT22;24786;51.984;5.872;2022-07-23T07:39:05;19.40;99.90
39019;DHT22;24786;51.984;5.872;2022-07-23T07:41:32;19.50;99.90
39019;DHT22;24786;51.984;5.872;2022-07-23T07:43:57;19.50;99.90
39019;DHT22;24786;51.984;5.872;2022-07-23T07:46:23;19.50;99.80
39019;DHT22;24786;51.984;5.872;2022-07-23T07:48:50;19.60;99.80
39019;DHT22;24786;51.984;5.872;2022-07-23T07:51:15;19.60;99.70
39019;DHT22;24786;51.984;5.872;2022-07-23T07:53:41;19.60;99.60
39019;DHT22;24786;51.984;5.872;2022-07-23T07:56:06;19.60;99.60
39019;DHT22;24786;51.984;5.872;2022-07-23T07:58:32;19.70;99.60
39019;DHT22;24786;51.984;5.872;2022-07-23T08:00:58;19.80;99.60
39019;DHT22;24786;51.984;5.872;2022-07-23T08:03:23;19.90;99.50
39019;DHT22;24786;51.984;5.872;2022-07-23T08:05:49;20.00;99.40
39019;DHT22;24786;51.984;5.872;2022-07-23T08:08:14;20.00;99.20
39019;DHT22;24786;51.984;5.872;2022-07-23T08:10:41;20.10;99.20
39019;DHT22;24786;51.984;5.872;2022-07-23T08:13:07;20.00;99.10
39019;DHT22;24786;51.984;5.872;2022-07-23T08:15:35;20.10;99.10
39019;DHT22;24786;51.984;5.872;2022-07-23T08:18:01;20.10;98.80
39019;DHT22;24786;51.984;5.872;2022-07-23T08:20:29;20.10;98.70
39019;DHT22;24786;51.984;5.872;2022-07-23T08:23:01;20.10;98.70
39019;DHT22;24786;51.984;5.872;2022-07-23T08:25:36;20.10;98.80
39019;DHT22;24786;51.984;5.872;2022-07-23T08:28:04;20.10;98.60
39019;DHT22;24786;51.984;5.872;2022-07-23T08:30:31;20.10;98.60
39019;DHT22;24786;51.984;5.872;2022-07-23T08:33:19;20.20;98.20
39019;DHT22;24786;51.984;5.872;2022-07-23T08:35:46;20.20;98.20
39019;DHT22;24786;51.984;5.872;2022-07-23T08:38:14;20.20;98.20
39019;DHT22;24786;51.984;5.872;2022-07-23T08:40:44;20.20;98.30
39019;DHT22;24786;51.984;5.872;2022-07-23T08:43:22;20.30;98.10
39019;DHT22;24786;51.984;5.872;2022-07-23T08:45:51;20.40;98.00
39019;DHT22;24786;51.984;5.872;2022-07-23T08:48:21;20.40;98.00
39019;DHT22;24786;51.984;5.872;2022-07-23T08:50:49;20.50;97.90
39019;DHT22;24786;51.984;5.872;2022-07-23T08:53:16;20.60;97.80
39019;DHT22;24786;51.984;5.872;2022-07-23T08:55:47;20.60;97.70
39019;DHT22;24786;51.984;5.872;2022-07-23T08:58:13;20.50;97.70
39019;DHT22;24786;51.984;5.872;2022-07-23T09:00:39;20.50;97.70
39019;DHT22;24786;51.984;5.872;2022-07-23T09:03:05;20.50;97.80
39019;DHT22;24786;51.984;5.872;2022-07-23T09:05:31;20.60;97.70
39019;DHT22;24786;51.984;5.872;2022-07-23T09:08:09;20.70;97.50
39019;DHT22;24786;51.984;5.872;2022-07-23T09:13:38;20.80;97.20
39019;DHT22;24786;51.984;5.872;2022-07-23T09:16:34;20.90;97.10
39019;DHT22;24786;51.984;5.872;2022-07-23T09:19:01;21.10;97.00
39019;DHT22;24786;51.984;5.872;2022-07-23T09:21:33;21.10;96.90
39019;DHT22;24786;51.984;5.872;2022-07-23T09:24:06;21.10;96.90
39019;DHT22;24786;51.984;5.872;2022-07-23T09:26:45;21.20;96.80
39019;DHT22;24786;51.984;5.872;2022-07-23T09:29:23;21.30;96.70
39019;DHT22;24786;51.984;5.872;2022-07-23T09:32:16;21.40;96.60
39019;DHT22;24786;51.984;5.872;2022-07-23T09:34:49;21.50;96.60
39019;DHT22;24786;51.984;5.872;2022-07-23T09:37:17;21.50;96.10
39019;DHT22;24786;51.984;5.872;2022-07-23T09:39:44;21.60;95.90
39019;DHT22;24786;51.984;5.872;2022-07-23T09:44:46;21.50;95.70
39019;DHT22;24786;51.984;5.872;2022-07-23T09:47:12;21.60;95.80
39019;DHT22;24786;51.984;5.872;2022-07-23T09:49:38;21.80;95.70
39019;DHT22;24786;51.984;5.872;2022-07-23T09:52:04;21.90;95.50
39019;DHT22;24786;51.984;5.872;2022-07-23T09:54:38;21.90;95.40
39019;DHT22;24786;51.984;5.872;2022-07-23T09:57:12;22.00;95.40
39019;DHT22;24786;51.984;5.872;2022-07-23T09:59:43;22.00;95.30
39019;DHT22;24786;51.984;5.872;2022-07-23T10:02:10;22.10;95.20
39019;DHT22;24786;51.984;5.872;2022-07-23T10:04:39;22.10;95.00
39019;DHT22;24786;51.984;5.872;2022-07-23T10:07:06;22.20;94.90
39019;DHT22;24786;51.984;5.872;2022-07-23T10:09:35;22.20;95.00
39019;DHT22;24786;51.984;5.872;2022-07-23T10:12:12;22.30;95.10
39019;DHT22;24786;51.984;5.872;2022-07-23T10:14:41;22.50;94.90
39019;DHT22;24786;51.984;5.872;2022-07-23T10:17:07;22.50;94.90
39019;DHT22;24786;51.984;5.872;2022-07-23T10:19:33;22.70;94.80
39019;DHT22;24786;51.984;5.872;2022-07-23T10:22:04;22.70;94.70
39019;DHT22;24786;51.984;5.872;2022-07-23T10:25:04;22.80;94.50
39019;DHT22;24786;51.984;5.872;2022-07-23T10:30:26;22.90;94.10
39019;DHT22;24786;51.984;5.872;2022-07-23T10:33:01;23.00;94.10
39019;DHT22;24786;51.984;5.872;2022-07-23T10:35:48;23.10;94.00
39019;DHT22;24786;51.984;5.872;2022-07-23T10:41:11;23.30;93.20
39019;DHT22;24786;51.984;5.872;2022-07-23T10:43:40;23.30;93.20
39019;DHT22;24786;51.984;5.872;2022-07-23T10:46:54;23.30;93.30
39019;DHT22;24786;51.984;5.872;2022-07-23T10:49:33;23.30;93.30
39019;DHT22;24786;51.984;5.872;2022-07-23T10:54:44;23.50;93.30
39019;DHT22;24786;51.984;5.872;2022-07-23T10:57:11;23.60;93.10
39019;DHT22;24786;51.984;5.872;2022-07-23T11:02:38;23.80;92.90
39019;DHT22;24786;51.984;5.872;2022-07-23T11:05:19;23.90;92.80
39019;DHT22;24786;51.984;5.872;2022-07-23T11:10:47;24.10;92.40
39019;DHT22;24786;51.984;5.872;2022-07-23T11:16:19;23.70;92.50
39019;DHT22;24786;51.984;5.872;2022-07-23T11:24:18;23.30;92.70
39019;DHT22;24786;51.984;5.872;2022-07-23T11:26:50;23.30;92.70
39019;DHT22;24786;51.984;5.872;2022-07-23T11:32:00;23.60;92.40
39019;DHT22;24786;51.984;5.872;2022-07-23T11:37:05;23.90;92.00
39019;DHT22;24786;51.984;5.872;2022-07-23T11:39:32;24.10;91.70
39019;DHT22;24786;51.984;5.872;2022-07-23T11:41:58;24.20;91.60
39019;DHT22;24786;51.984;5.872;2022-07-23T11:44:29;24.10;91.40
39019;DHT22;24786;51.984;5.872;2022-07-23T11:49:28;24.00;91.60
39019;DHT22;24786;51.984;5.872;2022-07-23T11:54:36;24.30;91.70
39019;DHT22;24786;51.984;5.872;2022-07-23T11:57:09;24.40;91.60
39019;DHT22;24786;51.984;5.872;2022-07-23T11:59:35;24.30;91.50
39019;DHT22;24786;51.984;5.872;2022-07-23T12:02:04;24.00;91.50
39019;DHT22;24786;51.984;5.872;2022-07-23T12:04:43;23.90;91.60
39019;DHT22;24786;51.984;5.872;2022-07-23T12:07:34;23.80;91.70
39019;DHT22;24786;51.984;5.872;2022-07-23T12:10:10;23.70;91.30
39019;DHT22;24786;51.984;5.872;2022-07-23T12:12:39;23.80;91.40
39019;DHT22;24786;51.984;5.872;2022-07-23T12:15:06;23.90;91.30
39019;DHT22;24786;51.984;5.872;2022-07-23T12:17:34;24.20;91.20
39019;DHT22;24786;51.984;5.872;2022-07-23T12:20:00;24.40;90.60
39019;DHT22;24786;51.984;5.872;2022-07-23T12:22:42;24.40;90.50
39019;DHT22;24786;51.984;5.872;2022-07-23T12:25:11;24.50;90.30
39019;DHT22;24786;51.984;5.872;2022-07-23T12:27:37;24.30;90.40
39019;DHT22;24786;51.984;5.872;2022-07-23T12:30:26;24.10;90.60
39019;DHT22;24786;51.984;5.872;2022-07-23T12:32:54;24.00;90.80
39019;DHT22;24786;51.984;5.872;2022-07-23T12:35:22;23.90;90.90
39019;DHT22;24786;51.984;5.872;2022-07-23T12:37:49;24.00;90.70
39019;DHT22;24786;51.984;5.872;2022-07-23T12:42:58;24.10;90.60
39019;DHT22;24786;51.984;5.872;2022-07-23T12:45:24;24.10;90.60
39019;DHT22;24786;51.984;5.872;2022-07-23T12:48:05;24.30;90.50
39019;DHT22;24786;51.984;5.872;2022-07-23T12:51:03;24.60;90.20
39019;DHT22;24786;51.984;5.872;2022-07-23T12:56:00;25.20;88.80
39019;DHT22;24786;51.984;5.872;2022-07-23T12:58:26;25.30;88.30
39019;DHT22;24786;51.984;5.872;2022-07-23T13:00:53;25.50;87.40
39019;DHT22;24786;51.984;5.872;2022-07-23T13:05:49;25.70;86.30
39019;DHT22;24786;51.984;5.872;2022-07-23T13:08:14;25.80;86.00
39019;DHT22;24786;51.984;5.872;2022-07-23T13:10:40;26.00;86.10
39019;DHT22;24786;51.984;5.872;2022-07-23T13:13:11;26.20;85.30
39019;DHT22;24786;51.984;5.872;2022-07-23T13:15:37;26.30;85.40
39019;DHT22;24786;51.984;5.872;2022-07-23T13:18:03;26.40;85.60
39019;DHT22;24786;51.984;5.872;2022-07-23T13:20:28;26.60;85.40
39019;DHT22;24786;51.984;5.872;2022-07-23T13:22:54;26.70;84.80
39019;DHT22;24786;51.984;5.872;2022-07-23T13:25:19;26.80;84.20
39019;DHT22;24786;51.984;5.872;2022-07-23T13:27:45;26.50;84.50
39019;DHT22;24786;51.984;5.872;2022-07-23T13:30:11;26.50;84.70
39019;DHT22;24786;51.984;5.872;2022-07-23T13:32:36;26.50;84.70
39019;DHT22;24786;51.984;5.872;2022-07-23T13:35:03;26.60;84.60
39019;DHT22;24786;51.984;5.872;2022-07-23T13:37:29;26.60;83.90
39019;DHT22;24786;51.984;5.872;2022-07-23T13:39:54;26.70;83.80
39019;DHT22;24786;51.984;5.872;2022-07-23T13:42:23;26.80;83.80
39019;DHT22;24786;51.984;5.872;2022-07-23T13:44:49;26.70;83.80
39019;DHT22;24786;51.984;5.872;2022-07-23T13:47:14;26.60;84.30
39019;DHT22;24786;51.984;5.872;2022-07-23T13:49:40;26.60;84.10
39019;DHT22;24786;51.984;5.872;2022-07-23T13:52:06;26.50;82.70
39019;DHT22;24786;51.984;5.872;2022-07-23T13:54:32;26.30;83.10
39019;DHT22;24786;51.984;5.872;2022-07-23T13:56:59;26.50;82.70
39019;DHT22;24786;51.984;5.872;2022-07-23T13:59:25;26.40;81.70
39019;DHT22;24786;51.984;5.872;2022-07-23T14:01:50;26.20;82.30
39019;DHT22;24786;51.984;5.872;2022-07-23T14:04:16;26.20;82.60
39019;DHT22;24786;51.984;5.872;2022-07-23T14:06:42;26.20;82.40
39019;DHT22;24786;51.984;5.872;2022-07-23T14:09:07;26.20;82.50
39019;DHT22;24786;51.984;5.872;2022-07-23T14:11:33;26.00;82.70
39019;DHT22;24786;51.984;5.872;2022-07-23T14:14:00;25.90;83.00
39019;DHT22;24786;51.984;5.872;2022-07-23T14:16:26;26.00;82.80
39019;DHT22;24786;51.984;5.872;2022-07-23T14:18:52;25.90;82.50
39019;DHT22;24786;51.984;5.872;2022-07-23T14:21:17;26.00;82.70
39019;DHT22;24786;51.984;5.872;2022-07-23T14:23:43;26.10;81.40
39019;DHT22;24786;51.984;5.872;2022-07-23T14:26:08;26.30;80.70
39019;DHT22;24786;51.984;5.872;2022-07-23T14:28:34;26.40;80.80
39019;DHT22;24786;51.984;5.872;2022-07-23T14:31:00;26.60;80.90
39019;DHT22;24786;51.984;5.872;2022-07-23T14:33:25;26.80;80.70
39019;DHT22;24786;51.984;5.872;2022-07-23T14:35:51;26.90;79.80
39019;DHT22;24786;51.984;5.872;2022-07-23T14:38:19;27.10;79.30
39019;DHT22;24786;51.984;5.872;2022-07-23T14:40:44;27.10;78.30
39019;DHT22;24786;51.984;5.872;2022-07-23T14:43:10;27.00;78.80
39019;DHT22;24786;51.984;5.872;2022-07-23T14:45:35;26.80;79.40
39019;DHT22;24786;51.984;5.872;2022-07-23T14:48:04;26.50;79.90
39019;DHT22;24786;51.984;5.872;2022-07-23T14:50:30;26.20;80.30
39019;DHT22;24786;51.984;5.872;2022-07-23T14:52:55;26.00;81.00
39019;DHT22;24786;51.984;5.872;2022-07-23T14:55:21;25.80;81.20
39019;DHT22;24786;51.984;5.872;2022-07-23T14:57:51;25.60;81.70
39019;DHT22;24786;51.984;5.872;2022-07-23T15:00:16;25.50;82.90
39019;DHT22;24786;51.984;5.872;2022-07-23T15:02:42;25.60;83.10
39019;DHT22;24786;51.984;5.872;2022-07-23T15:05:08;25.60;82.80
39019;DHT22;24786;51.984;5.872;2022-07-23T15:07:33;25.50;82.70
39019;DHT22;24786;51.984;5.872;2022-07-23T15:09:59;25.60;82.70
39019;DHT22;24786;51.984;5.872;2022-07-23T15:12:24;25.70;82.80
39019;DHT22;24786;51.984;5.872;2022-07-23T15:14:50;25.90;82.70
39019;DHT22;24786;51.984;5.872;2022-07-23T15:17:16;26.00;82.60
39019;DHT22;24786;51.984;5.872;2022-07-23T15:19:41;25.90;82.50
39019;DHT22;24786;51.984;5.872;2022-07-23T15:22:07;25.80;82.70
39019;DHT22;24786;51.984;5.872;2022-07-23T15:24:32;25.80;82.90
39019;DHT22;24786;51.984;5.872;2022-07-23T15:26:58;25.80;83.00
39019;DHT22;24786;51.984;5.872;2022-07-23T15:29:24;25.80;82.70
39019;DHT22;24786;51.984;5.872;2022-07-23T15:31:49;25.90;82.20
39019;DHT22;24786;51.984;5.872;2022-07-23T15:34:15;26.00;81.60
39019;DHT22;24786;51.984;5.872;2022-07-23T15:36:41;26.10;81.80
39019;DHT22;24786;51.984;5.872;2022-07-23T15:39:06;26.10;81.60
39019;DHT22;24786;51.984;5.872;2022-07-23T15:41:32;26.10;81.80
39019;DHT22;24786;51.984;5.872;2022-07-23T15:43:58;26.10;81.20
39019;DHT22;24786;51.984;5.872;2022-07-23T15:46:24;26.20;81.30
39019;DHT22;24786;51.984;5.872;2022-07-23T15:48:50;26.20;81.20
39019;DHT22;24786;51.984;5.872;2022-07-23T15:51:16;26.30;81.00
39019;DHT22;24786;51.984;5.872;2022-07-23T15:53:42;26.40;81.10
39019;DHT22;24786;51.984;5.872;2022-07-23T15:56:08;26.30;80.60
39019;DHT22;24786;51.984;5.872;2022-07-23T15:58:35;26.30;80.70
39019;DHT22;24786;51.984;5.872;2022-07-23T16:01:01;26.30;80.80
39019;DHT22;24786;51.984;5.872;2022-07-23T16:03:35;26.40;80.50
39019;DHT22;24786;51.984;5.872;2022-07-23T16:06:02;26.30;80.30
39019;DHT22;24786;51.984;5.872;2022-07-23T16:08:28;26.40;80.00
39019;DHT22;24786;51.984;5.872;2022-07-23T16:10:53;26.40;79.80
39019;DHT22;24786;51.984;5.872;2022-07-23T16:13:22;26.30;79.20
39019;DHT22;24786;51.984;5.872;2022-07-23T16:15:48;26.20;79.60
39019;DHT22;24786;51.984;5.872;2022-07-23T16:18:14;25.90;80.10